sensor_id;sensor_type;location;lat;lon;timestamp;P1;durP1;ratioP1;P2;durP2;ratioP2
11598;SDS011;5855;48.840;9.188;2023-04-06T00:00:09;8.15;;;5.95;;
11598;SDS011;5855;48.840;9.188;2023-04-06T00:02:37;7.00;;;5.80;;
11598;SDS011;5855;48.840;9.188;2023-04-06T00:05:06;6.78;;;5.57;;
11598;SDS011;5855;48.840;9.188;2023-04-06T00:07:33;7.72;;;5.35;;
11598;SDS011;5855;48.840;9.188;2023-04-06T00:10:01;7.97;;;5.70;;
11598;SDS011;5855;48.840;9.188;2023-04-06T00:12:28;6.60;;;5.60;;
11598;SDS011;5855;48.840;9.188;2023-04-06T00:14:55;7.22;;;6.32;;
11598;SDS011;5855;48.840;9.188;2023-04-06T00:17:22;8.02;;;6.38;;
11598;SDS011;5855;48.840;9.188;2023-04-06T00:19:49;7.22;;;6.10;;
11598;SDS011;5855;48.840;9.188;2023-04-06T00:22:17;7.90;;;6.65;;
11598;SDS011;5855;48.840;9.188;2023-04-06T00:24:44;9.82;;;7.40;;
11598;SDS011;5855;48.840;9.188;2023-04-06T00:27:11;8.38;;;7.18;;
11598;SDS011;5855;48.840;9.188;2023-04-06T00:29:39;9.32;;;7.00;;
11598;SDS011;5855;48.840;9.188;2023-04-06T00:32:06;9.48;;;7.30;;
11598;SDS011;5855;48.840;9.188;2023-04-06T00:34:33;8.90;;;7.35;;
11598;SDS011;5855;48.840;9.188;2023-04-06T00:36:59;9.27;;;7.40;;
11598;SDS011;5855;48.840;9.188;2023-04-06T00:39:28;7.95;;;7.10;;
11598;SDS011;5855;48.840;9.188;2023-04-06T00:41:55;9.45;;;7.70;;
11598;SDS011;5855;48.840;9.188;2023-04-06T00:44:24;8.95;;;6.65;;
11598;SDS011;5855;48.840;9.188;2023-04-06T00:46:51;7.72;;;6.72;;
11598;SDS011;5855;48.840;9.188;2023-04-06T00:49:18;8.20;;;7.20;;
11598;SDS011;5855;48.840;9.188;2023-04-06T00:51:45;8.13;;;7.00;;
11598;SDS011;5855;48.840;9.188;2023-04-06T00:54:12;7.80;;;7.00;;
11598;SDS011;5855;48.840;9.188;2023-04-06T00:56:40;8.50;;;7.03;;
11598;SDS011;5855;48.840;9.188;2023-04-06T00:59:08;8.68;;;6.68;;
11598;SDS011;5855;48.840;9.188;2023-04-06T01:01:36;9.00;;;6.80;;
11598;SDS011;5855;48.840;9.188;2023-04-06T01:04:02;8.25;;;7.15;;
11598;SDS011;5855;48.840;9.188;2023-04-06T01:06:30;9.90;;;6.57;;
11598;SDS011;5855;48.840;9.188;2023-04-06T01:08:56;8.88;;;7.20;;
11598;SDS011;5855;48.840;9.188;2023-04-06T01:11:23;9.48;;;6.93;;
11598;SDS011;5855;48.840;9.188;2023-04-06T01:13:52;8.05;;;6.85;;
11598;SDS011;5855;48.840;9.188;2023-04-06T01:16:19;8.68;;;7.07;;
11598;SDS011;5855;48.840;9.188;2023-04-06T01:18:46;10.02;;;6.97;;
11598;SDS011;5855;48.840;9.188;2023-04-06T01:21:13;8.65;;;7.00;;
11598;SDS011;5855;48.840;9.188;2023-04-06T01:23:43;8.02;;;6.82;;
11598;SDS011;5855;48.840;9.188;2023-04-06T01:26:11;8.05;;;6.70;;
11598;SDS011;5855;48.840;9.188;2023-04-06T01:28:38;9.25;;;6.70;;
11598;SDS011;5855;48.840;9.188;2023-04-06T01:31:07;8.50;;;6.70;;
11598;SDS011;5855;48.840;9.188;2023-04-06T01:33:35;9.32;;;7.05;;
11598;SDS011;5855;48.840;9.188;2023-04-06T01:36:02;9.43;;;6.55;;
11598;SDS011;5855;48.840;9.188;2023-04-06T01:38:30;7.95;;;7.07;;
11598;SDS011;5855;48.840;9.188;2023-04-06T01:40:58;9.77;;;7.38;;
11598;SDS011;5855;48.840;9.188;2023-04-06T01:43:25;7.68;;;6.85;;
11598;SDS011;5855;48.840;9.188;2023-04-06T01:45:52;9.65;;;7.30;;
11598;SDS011;5855;48.840;9.188;2023-04-06T01:48:19;8.38;;;6.60;;
11598;SDS011;5855;48.840;9.188;2023-04-06T01:50:46;9.82;;;7.35;;
11598;SDS011;5855;48.840;9.188;2023-04-06T01:53:13;9.27;;;6.95;;
11598;SDS011;5855;48.840;9.188;2023-04-06T01:55:40;7.82;;;6.45;;
11598;SDS011;5855;48.840;9.188;2023-04-06T01:58:08;10.88;;;7.22;;
11598;SDS011;5855;48.840;9.188;2023-04-06T02:00:35;8.75;;;6.90;;
11598;SDS011;5855;48.840;9.188;2023-04-06T02:03:02;7.68;;;6.50;;
11598;SDS011;5855;48.840;9.188;2023-04-06T02:05:30;8.38;;;6.88;;
11598;SDS011;5855;48.840;9.188;2023-04-06T02:07:58;7.85;;;6.72;;
11598;SDS011;5855;48.840;9.188;2023-04-06T02:10:25;7.85;;;6.57;;
11598;SDS011;5855;48.840;9.188;2023-04-06T02:12:52;7.47;;;6.75;;
11598;SDS011;5855;48.840;9.188;2023-04-06T02:15:20;7.93;;;6.88;;
11598;SDS011;5855;48.840;9.188;2023-04-06T02:17:47;6.97;;;6.28;;
11598;SDS011;5855;48.840;9.188;2023-04-06T02:20:14;8.80;;;6.93;;
11598;SDS011;5855;48.840;9.188;2023-04-06T02:22:41;11.02;;;7.25;;
11598;SDS011;5855;48.840;9.188;2023-04-06T02:25:08;8.65;;;6.45;;
11598;SDS011;5855;48.840;9.188;2023-04-06T02:27:35;7.20;;;6.40;;
11598;SDS011;5855;48.840;9.188;2023-04-06T02:30:02;10.18;;;6.95;;
11598;SDS011;5855;48.840;9.188;2023-04-06T02:32:31;8.48;;;7.10;;
11598;SDS011;5855;48.840;9.188;2023-04-06T02:34:58;7.55;;;6.75;;
11598;SDS011;5855;48.840;9.188;2023-04-06T02:37:25;7.82;;;6.55;;
11598;SDS011;5855;48.840;9.188;2023-04-06T02:39:52;8.18;;;6.80;;
11598;SDS011;5855;48.840;9.188;2023-04-06T02:42:19;8.73;;;7.20;;
11598;SDS011;5855;48.840;9.188;2023-04-06T02:44:45;7.85;;;6.32;;
11598;SDS011;5855;48.840;9.188;2023-04-06T02:47:12;8.00;;;6.97;;
11598;SDS011;5855;48.840;9.188;2023-04-06T02:49:41;8.82;;;6.78;;
11598;SDS011;5855;48.840;9.188;2023-04-06T02:52:08;8.30;;;6.70;;
11598;SDS011;5855;48.840;9.188;2023-04-06T02:54:35;7.13;;;6.00;;
11598;SDS011;5855;48.840;9.188;2023-04-06T02:57:02;9.00;;;6.57;;
11598;SDS011;5855;48.840;9.188;2023-04-06T02:59:29;9.15;;;6.82;;
11598;SDS011;5855;48.840;9.188;2023-04-06T03:01:55;8.00;;;7.10;;
11598;SDS011;5855;48.840;9.188;2023-04-06T03:04:22;10.32;;;7.30;;
11598;SDS011;5855;48.840;9.188;2023-04-06T03:06:53;8.15;;;6.75;;
11598;SDS011;5855;48.840;9.188;2023-04-06T03:09:21;8.80;;;7.20;;
11598;SDS011;5855;48.840;9.188;2023-04-06T03:11:47;7.82;;;6.60;;
11598;SDS011;5855;48.840;9.188;2023-04-06T03:14:14;9.27;;;6.75;;
11598;SDS011;5855;48.840;9.188;2023-04-06T03:16:46;9.10;;;7.05;;
11598;SDS011;5855;48.840;9.188;2023-04-06T03:19:13;7.88;;;7.10;;
11598;SDS011;5855;48.840;9.188;2023-04-06T03:21:41;9.05;;;7.40;;
11598;SDS011;5855;48.840;9.188;2023-04-06T03:24:10;7.65;;;6.88;;
11598;SDS011;5855;48.840;9.188;2023-04-06T03:26:37;8.63;;;6.95;;
11598;SDS011;5855;48.840;9.188;2023-04-06T03:29:04;10.05;;;7.55;;
11598;SDS011;5855;48.840;9.188;2023-04-06T03:31:31;7.65;;;6.85;;
11598;SDS011;5855;48.840;9.188;2023-04-06T03:33:58;8.35;;;7.25;;
11598;SDS011;5855;48.840;9.188;2023-04-06T03:36:26;9.05;;;6.93;;
11598;SDS011;5855;48.840;9.188;2023-04-06T03:38:53;7.15;;;6.45;;
11598;SDS011;5855;48.840;9.188;2023-04-06T03:41:21;7.93;;;6.97;;
11598;SDS011;5855;48.840;9.188;2023-04-06T03:43:48;8.73;;;6.97;;
11598;SDS011;5855;48.840;9.188;2023-04-06T03:46:15;9.02;;;7.00;;
11598;SDS011;5855;48.840;9.188;2023-04-06T03:48:42;8.25;;;7.43;;
11598;SDS011;5855;48.840;9.188;2023-04-06T03:51:09;14.18;;;7.40;;
11598;SDS011;5855;48.840;9.188;2023-04-06T03:53:36;9.77;;;7.00;;
11598;SDS011;5855;48.840;9.188;2023-04-06T03:56:04;10.50;;;7.22;;
11598;SDS011;5855;48.840;9.188;2023-04-06T03:58:33;10.55;;;6.57;;
11598;SDS011;5855;48.840;9.188;2023-04-06T04:01:00;8.15;;;6.60;;
11598;SDS011;5855;48.840;9.188;2023-04-06T04:03:27;8.45;;;6.90;;
11598;SDS011;5855;48.840;9.188;2023-04-06T04:05:54;7.90;;;7.10;;
11598;SDS011;5855;48.840;9.188;2023-04-06T04:08:21;7.47;;;6.68;;
11598;SDS011;5855;48.840;9.188;2023-04-06T04:10:48;9.63;;;7.05;;
11598;SDS011;5855;48.840;9.188;2023-04-06T04:13:14;9.18;;;7.00;;
11598;SDS011;5855;48.840;9.188;2023-04-06T04:15:43;9.35;;;7.35;;
11598;SDS011;5855;48.840;9.188;2023-04-06T04:18:12;7.65;;;6.80;;
11598;SDS011;5855;48.840;9.188;2023-04-06T04:20:39;9.15;;;7.13;;
11598;SDS011;5855;48.840;9.188;2023-04-06T04:23:06;9.00;;;7.53;;
11598;SDS011;5855;48.840;9.188;2023-04-06T04:25:33;10.65;;;7.45;;
11598;SDS011;5855;48.840;9.188;2023-04-06T04:27:59;9.45;;;6.90;;
11598;SDS011;5855;48.840;9.188;2023-04-06T04:30:26;8.27;;;6.80;;
11598;SDS011;5855;48.840;9.188;2023-04-06T04:32:55;7.90;;;6.45;;
11598;SDS011;5855;48.840;9.188;2023-04-06T04:35:22;8.70;;;7.38;;
11598;SDS011;5855;48.840;9.188;2023-04-06T04:37:49;10.40;;;7.20;;
11598;SDS011;5855;48.840;9.188;2023-04-06T04:40:16;10.18;;;7.88;;
11598;SDS011;5855;48.840;9.188;2023-04-06T04:42:43;10.02;;;8.20;;
11598;SDS011;5855;48.840;9.188;2023-04-06T04:45:10;8.27;;;7.32;;
11598;SDS011;5855;48.840;9.188;2023-04-06T04:47:37;10.60;;;7.95;;
11598;SDS011;5855;48.840;9.188;2023-04-06T04:50:05;9.55;;;7.90;;
11598;SDS011;5855;48.840;9.188;2023-04-06T04:52:33;11.45;;;8.75;;
11598;SDS011;5855;48.840;9.188;2023-04-06T04:54:59;10.30;;;8.63;;
11598;SDS011;5855;48.840;9.188;2023-04-06T04:57:27;12.38;;;9.27;;
11598;SDS011;5855;48.840;9.188;2023-04-06T04:59:54;11.85;;;9.18;;
11598;SDS011;5855;48.840;9.188;2023-04-06T05:02:22;10.68;;;8.73;;
11598;SDS011;5855;48.840;9.188;2023-04-06T05:04:49;12.68;;;9.10;;
11598;SDS011;5855;48.840;9.188;2023-04-06T05:07:17;9.95;;;8.57;;
11598;SDS011;5855;48.840;9.188;2023-04-06T05:09:45;11.10;;;8.27;;
11598;SDS011;5855;48.840;9.188;2023-04-06T05:12:12;12.00;;;8.20;;
11598;SDS011;5855;48.840;9.188;2023-04-06T05:14:39;10.25;;;8.40;;
11598;SDS011;5855;48.840;9.188;2023-04-06T05:17:06;11.20;;;8.30;;
11598;SDS011;5855;48.840;9.188;2023-04-06T05:19:33;11.55;;;8.57;;
11598;SDS011;5855;48.840;9.188;2023-04-06T05:22:00;11.35;;;8.70;;
11598;SDS011;5855;48.840;9.188;2023-04-06T05:24:28;11.20;;;8.93;;
11598;SDS011;5855;48.840;9.188;2023-04-06T05:26:55;11.75;;;8.60;;
11598;SDS011;5855;48.840;9.188;2023-04-06T05:29:22;11.10;;;8.63;;
11598;SDS011;5855;48.840;9.188;2023-04-06T05:31:50;11.82;;;9.30;;
11598;SDS011;5855;48.840;9.188;2023-04-06T05:34:17;11.70;;;9.35;;
11598;SDS011;5855;48.840;9.188;2023-04-06T05:36:44;12.57;;;9.95;;
11598;SDS011;5855;48.840;9.188;2023-04-06T05:39:11;12.32;;;9.95;;
11598;SDS011;5855;48.840;9.188;2023-04-06T05:41:40;12.18;;;10.00;;
11598;SDS011;5855;48.840;9.188;2023-04-06T05:44:06;14.77;;;10.27;;
11598;SDS011;5855;48.840;9.188;2023-04-06T05:46:33;11.20;;;9.55;;
11598;SDS011;5855;48.840;9.188;2023-04-06T05:49:00;12.20;;;10.10;;
11598;SDS011;5855;48.840;9.188;2023-04-06T05:51:27;12.30;;;9.93;;
11598;SDS011;5855;48.840;9.188;2023-04-06T05:53:54;12.82;;;10.50;;
11598;SDS011;5855;48.840;9.188;2023-04-06T05:56:23;11.27;;;9.35;;
11598;SDS011;5855;48.840;9.188;2023-04-06T05:58:51;12.00;;;9.63;;
11598;SDS011;5855;48.840;9.188;2023-04-06T06:01:18;11.85;;;9.43;;
11598;SDS011;5855;48.840;9.188;2023-04-06T06:03:46;11.68;;;9.25;;
11598;SDS011;5855;48.840;9.188;2023-04-06T06:06:13;12.85;;;9.38;;
11598;SDS011;5855;48.840;9.188;2023-04-06T06:08:40;12.80;;;9.82;;
11598;SDS011;5855;48.840;9.188;2023-04-06T06:11:06;12.20;;;9.75;;
11598;SDS011;5855;48.840;9.188;2023-04-06T06:13:33;14.98;;;10.20;;
11598;SDS011;5855;48.840;9.188;2023-04-06T06:16:02;12.48;;;10.15;;
11598;SDS011;5855;48.840;9.188;2023-04-06T06:18:30;11.68;;;9.68;;
11598;SDS011;5855;48.840;9.188;2023-04-06T06:20:57;12.32;;;9.90;;
11598;SDS011;5855;48.840;9.188;2023-04-06T06:23:24;13.57;;;10.40;;
11598;SDS011;5855;48.840;9.188;2023-04-06T06:25:51;15.65;;;10.48;;
11598;SDS011;5855;48.840;9.188;2023-04-06T06:28:18;11.88;;;10.15;;
11598;SDS011;5855;48.840;9.188;2023-04-06T06:30:45;11.98;;;9.30;;
11598;SDS011;5855;48.840;9.188;2023-04-06T06:33:13;11.40;;;10.20;;
11598;SDS011;5855;48.840;9.188;2023-04-06T06:35:40;17.05;;;11.15;;
11598;SDS011;5855;48.840;9.188;2023-04-06T06:38:07;13.57;;;9.85;;
11598;SDS011;5855;48.840;9.188;2023-04-06T06:40:34;12.65;;;9.63;;
11598;SDS011;5855;48.840;9.188;2023-04-06T06:43:02;13.10;;;9.38;;
11598;SDS011;5855;48.840;9.188;2023-04-06T06:45:29;14.98;;;9.80;;
11598;SDS011;5855;48.840;9.188;2023-04-06T06:47:55;11.52;;;10.10;;
11598;SDS011;5855;48.840;9.188;2023-04-06T06:50:24;14.65;;;9.63;;
11598;SDS011;5855;48.840;9.188;2023-04-06T06:52:51;11.57;;;9.60;;
11598;SDS011;5855;48.840;9.188;2023-04-06T06:55:18;18.05;;;9.80;;
11598;SDS011;5855;48.840;9.188;2023-04-06T06:57:45;11.77;;;9.43;;
11598;SDS011;5855;48.840;9.188;2023-04-06T07:00:13;13.98;;;9.55;;
11598;SDS011;5855;48.840;9.188;2023-04-06T07:02:41;16.20;;;9.80;;
11598;SDS011;5855;48.840;9.188;2023-04-06T07:05:08;12.52;;;9.57;;
11598;SDS011;5855;48.840;9.188;2023-04-06T07:07:36;17.45;;;10.68;;
11598;SDS011;5855;48.840;9.188;2023-04-06T07:10:03;15.50;;;10.52;;
11598;SDS011;5855;48.840;9.188;2023-04-06T07:12:31;12.98;;;9.32;;
11598;SDS011;5855;48.840;9.188;2023-04-06T07:14:58;14.10;;;9.80;;
11598;SDS011;5855;48.840;9.188;2023-04-06T07:17:25;12.75;;;9.65;;
11598;SDS011;5855;48.840;9.188;2023-04-06T07:19:52;15.63;;;8.68;;
11598;SDS011;5855;48.840;9.188;2023-04-06T07:22:19;16.60;;;9.88;;
11598;SDS011;5855;48.840;9.188;2023-04-06T07:24:47;12.35;;;9.30;;
11598;SDS011;5855;48.840;9.188;2023-04-06T07:27:14;11.65;;;8.98;;
11598;SDS011;5855;48.840;9.188;2023-04-06T07:29:41;14.55;;;9.20;;
11598;SDS011;5855;48.840;9.188;2023-04-06T07:32:08;11.65;;;8.80;;
11598;SDS011;5855;48.840;9.188;2023-04-06T07:34:35;15.50;;;9.27;;
11598;SDS011;5855;48.840;9.188;2023-04-06T07:37:02;13.48;;;8.68;;
11598;SDS011;5855;48.840;9.188;2023-04-06T07:39:29;16.90;;;9.32;;
11598;SDS011;5855;48.840;9.188;2023-04-06T07:41:57;12.68;;;8.90;;
11598;SDS011;5855;48.840;9.188;2023-04-06T07:44:24;12.70;;;8.65;;
11598;SDS011;5855;48.840;9.188;2023-04-06T07:46:51;15.05;;;9.60;;
11598;SDS011;5855;48.840;9.188;2023-04-06T07:49:18;12.60;;;9.60;;
11598;SDS011;5855;48.840;9.188;2023-04-06T07:51:45;16.25;;;9.00;;
11598;SDS011;5855;48.840;9.188;2023-04-06T07:54:12;13.07;;;8.88;;
11598;SDS011;5855;48.840;9.188;2023-04-06T07:56:39;12.45;;;8.77;;
11598;SDS011;5855;48.840;9.188;2023-04-06T07:59:08;10.68;;;8.18;;
11598;SDS011;5855;48.840;9.188;2023-04-06T08:01:36;10.35;;;8.82;;
11598;SDS011;5855;48.840;9.188;2023-04-06T08:04:03;11.45;;;7.97;;
11598;SDS011;5855;48.840;9.188;2023-04-06T08:06:30;10.95;;;8.30;;
11598;SDS011;5855;48.840;9.188;2023-04-06T08:08:57;10.32;;;8.73;;
11598;SDS011;5855;48.840;9.188;2023-04-06T08:11:24;9.38;;;8.30;;
11598;SDS011;5855;48.840;9.188;2023-04-06T08:13:52;10.30;;;8.07;;
11598;SDS011;5855;48.840;9.188;2023-04-06T08:16:54;11.18;;;8.15;;
11598;SDS011;5855;48.840;9.188;2023-04-06T08:19:21;12.68;;;8.20;;
11598;SDS011;5855;48.840;9.188;2023-04-06T08:21:48;12.48;;;8.20;;
11598;SDS011;5855;48.840;9.188;2023-04-06T08:24:16;9.77;;;8.10;;
11598;SDS011;5855;48.840;9.188;2023-04-06T08:26:43;10.50;;;8.48;;
11598;SDS011;5855;48.840;9.188;2023-04-06T08:29:10;10.00;;;8.25;;
11598;SDS011;5855;48.840;9.188;2023-04-06T08:31:37;13.32;;;8.60;;
11598;SDS011;5855;48.840;9.188;2023-04-06T08:34:05;11.82;;;8.50;;
11598;SDS011;5855;48.840;9.188;2023-04-06T08:36:32;9.90;;;8.32;;
11598;SDS011;5855;48.840;9.188;2023-04-06T08:39:00;13.45;;;8.60;;
11598;SDS011;5855;48.840;9.188;2023-04-06T08:41:27;11.18;;;8.10;;
11598;SDS011;5855;48.840;9.188;2023-04-06T08:43:55;11.35;;;8.35;;
11598;SDS011;5855;48.840;9.188;2023-04-06T08:46:23;10.73;;;8.60;;
11598;SDS011;5855;48.840;9.188;2023-04-06T08:48:54;11.68;;;7.93;;
11598;SDS011;5855;48.840;9.188;2023-04-06T08:51:23;10.57;;;8.10;;
11598;SDS011;5855;48.840;9.188;2023-04-06T08:53:51;10.35;;;7.97;;
11598;SDS011;5855;48.840;9.188;2023-04-06T08:56:20;9.15;;;7.47;;
11598;SDS011;5855;48.840;9.188;2023-04-06T08:58:48;10.77;;;7.95;;
11598;SDS011;5855;48.840;9.188;2023-04-06T09:01:17;10.38;;;7.70;;
11598;SDS011;5855;48.840;9.188;2023-04-06T09:03:46;9.73;;;7.22;;
11598;SDS011;5855;48.840;9.188;2023-04-06T09:06:16;9.82;;;6.95;;
11598;SDS011;5855;48.840;9.188;2023-04-06T09:08:44;10.30;;;7.72;;
11598;SDS011;5855;48.840;9.188;2023-04-06T09:11:11;9.23;;;6.82;;
11598;SDS011;5855;48.840;9.188;2023-04-06T09:13:45;8.35;;;7.13;;
11598;SDS011;5855;48.840;9.188;2023-04-06T09:16:13;11.88;;;7.32;;
11598;SDS011;5855;48.840;9.188;2023-04-06T09:18:40;10.00;;;6.97;;
11598;SDS011;5855;48.840;9.188;2023-04-06T09:21:07;7.70;;;6.68;;
11598;SDS011;5855;48.840;9.188;2023-04-06T09:23:35;7.97;;;6.25;;
11598;SDS011;5855;48.840;9.188;2023-04-06T09:26:07;8.40;;;6.82;;
11598;SDS011;5855;48.840;9.188;2023-04-06T09:28:45;8.10;;;7.28;;
11598;SDS011;5855;48.840;9.188;2023-04-06T09:31:16;8.80;;;7.10;;
11598;SDS011;5855;48.840;9.188;2023-04-06T09:33:50;8.13;;;6.82;;
11598;SDS011;5855;48.840;9.188;2023-04-06T09:36:18;7.63;;;6.93;;
11598;SDS011;5855;48.840;9.188;2023-04-06T09:38:51;9.50;;;7.82;;
11598;SDS011;5855;48.840;9.188;2023-04-06T09:41:22;10.45;;;7.43;;
11598;SDS011;5855;48.840;9.188;2023-04-06T09:43:50;8.35;;;7.55;;
11598;SDS011;5855;48.840;9.188;2023-04-06T09:46:17;8.23;;;7.00;;
11598;SDS011;5855;48.840;9.188;2023-04-06T09:48:49;9.43;;;7.57;;
11598;SDS011;5855;48.840;9.188;2023-04-06T09:51:17;9.07;;;7.60;;
11598;SDS011;5855;48.840;9.188;2023-04-06T09:53:46;10.70;;;7.10;;
11598;SDS011;5855;48.840;9.188;2023-04-06T09:56:18;8.32;;;7.50;;
11598;SDS011;5855;48.840;9.188;2023-04-06T09:58:50;7.82;;;6.95;;
11598;SDS011;5855;48.840;9.188;2023-04-06T10:01:21;8.27;;;7.13;;
11598;SDS011;5855;48.840;9.188;2023-04-06T10:03:54;9.30;;;7.30;;
11598;SDS011;5855;48.840;9.188;2023-04-06T10:06:30;7.38;;;6.32;;
11598;SDS011;5855;48.840;9.188;2023-04-06T10:09:00;8.88;;;6.82;;
11598;SDS011;5855;48.840;9.188;2023-04-06T10:11:31;7.43;;;6.72;;
11598;SDS011;5855;48.840;9.188;2023-04-06T10:13:58;7.70;;;7.00;;
11598;SDS011;5855;48.840;9.188;2023-04-06T10:16:25;8.50;;;7.07;;
11598;SDS011;5855;48.840;9.188;2023-04-06T10:18:55;8.00;;;6.63;;
11598;SDS011;5855;48.840;9.188;2023-04-06T10:21:26;9.10;;;7.15;;
11598;SDS011;5855;48.840;9.188;2023-04-06T10:23:57;10.55;;;7.68;;
11598;SDS011;5855;48.840;9.188;2023-04-06T10:26:26;9.40;;;7.13;;
11598;SDS011;5855;48.840;9.188;2023-04-06T10:28:54;7.38;;;6.60;;
11598;SDS011;5855;48.840;9.188;2023-04-06T10:31:24;8.20;;;7.40;;
11598;SDS011;5855;48.840;9.188;2023-04-06T10:33:56;8.52;;;7.70;;
11598;SDS011;5855;48.840;9.188;2023-04-06T10:36:24;8.50;;;7.72;;
11598;SDS011;5855;48.840;9.188;2023-04-06T10:38:56;9.05;;;7.57;;
11598;SDS011;5855;48.840;9.188;2023-04-06T10:41:23;8.93;;;8.02;;
11598;SDS011;5855;48.840;9.188;2023-04-06T10:44:00;7.75;;;6.93;;
11598;SDS011;5855;48.840;9.188;2023-04-06T10:46:28;7.82;;;7.03;;
11598;SDS011;5855;48.840;9.188;2023-04-06T10:48:56;7.93;;;7.15;;
11598;SDS011;5855;48.840;9.188;2023-04-06T10:51:25;7.88;;;7.07;;
11598;SDS011;5855;48.840;9.188;2023-04-06T10:53:54;7.70;;;6.88;;
11598;SDS011;5855;48.840;9.188;2023-04-06T10:56:21;7.97;;;7.07;;
11598;SDS011;5855;48.840;9.188;2023-04-06T10:58:51;7.13;;;6.43;;
11598;SDS011;5855;48.840;9.188;2023-04-06T11:01:23;9.15;;;6.97;;
11598;SDS011;5855;48.840;9.188;2023-04-06T11:03:52;11.02;;;7.75;;
11598;SDS011;5855;48.840;9.188;2023-04-06T11:06:20;8.77;;;6.45;;
11598;SDS011;5855;48.840;9.188;2023-04-06T11:08:48;7.55;;;6.85;;
11598;SDS011;5855;48.840;9.188;2023-04-06T11:11:15;6.78;;;6.13;;
11598;SDS011;5855;48.840;9.188;2023-04-06T11:13:44;7.80;;;6.75;;
11598;SDS011;5855;48.840;9.188;2023-04-06T11:16:12;8.00;;;6.30;;
11598;SDS011;5855;48.840;9.188;2023-04-06T11:18:49;7.18;;;6.47;;
11598;SDS011;5855;48.840;9.188;2023-04-06T11:21:17;6.68;;;6.03;;
11598;SDS011;5855;48.840;9.188;2023-04-06T11:23:44;7.28;;;6.55;;
11598;SDS011;5855;48.840;9.188;2023-04-06T11:26:11;7.72;;;6.30;;
11598;SDS011;5855;48.840;9.188;2023-04-06T11:28:39;7.93;;;6.50;;
11598;SDS011;5855;48.840;9.188;2023-04-06T11:31:07;5.93;;;5.32;;
11598;SDS011;5855;48.840;9.188;2023-04-06T11:33:35;6.88;;;6.18;;
11598;SDS011;5855;48.840;9.188;2023-04-06T11:36:04;6.28;;;5.57;;
11598;SDS011;5855;48.840;9.188;2023-04-06T11:38:32;6.60;;;5.88;;
11598;SDS011;5855;48.840;9.188;2023-04-06T11:41:00;6.20;;;5.50;;
11598;SDS011;5855;48.840;9.188;2023-04-06T11:43:28;5.80;;;5.30;;
11598;SDS011;5855;48.840;9.188;2023-04-06T11:46:02;6.32;;;5.60;;
11598;SDS011;5855;48.840;9.188;2023-04-06T11:48:31;6.75;;;5.30;;
11598;SDS011;5855;48.840;9.188;2023-04-06T11:50:58;6.38;;;5.53;;
11598;SDS011;5855;48.840;9.188;2023-04-06T11:53:28;5.90;;;5.40;;
11598;SDS011;5855;48.840;9.188;2023-04-06T11:55:55;6.90;;;5.30;;
11598;SDS011;5855;48.840;9.188;2023-04-06T11:58:22;6.40;;;5.70;;
11598;SDS011;5855;48.840;9.188;2023-04-06T12:00:49;6.30;;;4.90;;
11598;SDS011;5855;48.840;9.188;2023-04-06T12:03:17;6.40;;;5.43;;
11598;SDS011;5855;48.840;9.188;2023-04-06T12:05:44;5.72;;;5.10;;
11598;SDS011;5855;48.840;9.188;2023-04-06T12:08:11;5.93;;;5.00;;
11598;SDS011;5855;48.840;9.188;2023-04-06T12:10:39;5.20;;;4.70;;
11598;SDS011;5855;48.840;9.188;2023-04-06T12:13:06;5.68;;;5.15;;
11598;SDS011;5855;48.840;9.188;2023-04-06T12:15:33;5.85;;;5.35;;
11598;SDS011;5855;48.840;9.188;2023-04-06T12:18:00;5.25;;;4.75;;
11598;SDS011;5855;48.840;9.188;2023-04-06T12:20:27;5.30;;;4.80;;
11598;SDS011;5855;48.840;9.188;2023-04-06T12:22:54;5.10;;;4.60;;
11598;SDS011;5855;48.840;9.188;2023-04-06T12:25:21;6.25;;;5.10;;
11598;SDS011;5855;48.840;9.188;2023-04-06T12:27:49;6.72;;;5.03;;
11598;SDS011;5855;48.840;9.188;2023-04-06T12:30:16;5.35;;;4.30;;
11598;SDS011;5855;48.840;9.188;2023-04-06T12:32:43;5.57;;;4.60;;
11598;SDS011;5855;48.840;9.188;2023-04-06T12:35:10;4.85;;;4.45;;
11598;SDS011;5855;48.840;9.188;2023-04-06T12:37:40;4.47;;;4.07;;
11598;SDS011;5855;48.840;9.188;2023-04-06T12:40:08;5.07;;;4.53;;
11598;SDS011;5855;48.840;9.188;2023-04-06T12:42:38;6.57;;;4.35;;
11598;SDS011;5855;48.840;9.188;2023-04-06T12:45:08;4.70;;;4.30;;
11598;SDS011;5855;48.840;9.188;2023-04-06T12:47:36;4.80;;;4.35;;
11598;SDS011;5855;48.840;9.188;2023-04-06T12:50:03;5.38;;;4.55;;
11598;SDS011;5855;48.840;9.188;2023-04-06T12:52:31;4.47;;;4.07;;
11598;SDS011;5855;48.840;9.188;2023-04-06T12:55:00;5.55;;;5.05;;
11598;SDS011;5855;48.840;9.188;2023-04-06T12:57:27;5.20;;;4.70;;
11598;SDS011;5855;48.840;9.188;2023-04-06T12:59:54;5.13;;;4.60;;
11598;SDS011;5855;48.840;9.188;2023-04-06T13:02:23;5.18;;;4.65;;
11598;SDS011;5855;48.840;9.188;2023-04-06T13:04:50;4.80;;;4.40;;
11598;SDS011;5855;48.840;9.188;2023-04-06T13:07:17;5.13;;;4.55;;
11598;SDS011;5855;48.840;9.188;2023-04-06T13:09:44;5.50;;;4.85;;
11598;SDS011;5855;48.840;9.188;2023-04-06T13:12:12;5.38;;;4.53;;
11598;SDS011;5855;48.840;9.188;2023-04-06T13:14:39;5.43;;;4.60;;
11598;SDS011;5855;48.840;9.188;2023-04-06T13:17:06;4.57;;;4.18;;
11598;SDS011;5855;48.840;9.188;2023-04-06T13:19:36;5.25;;;4.22;;
11598;SDS011;5855;48.840;9.188;2023-04-06T13:22:03;4.40;;;4.00;;
11598;SDS011;5855;48.840;9.188;2023-04-06T13:24:30;4.57;;;4.18;;
11598;SDS011;5855;48.840;9.188;2023-04-06T13:26:57;4.53;;;4.13;;
11598;SDS011;5855;48.840;9.188;2023-04-06T13:29:24;4.25;;;3.85;;
11598;SDS011;5855;48.840;9.188;2023-04-06T13:31:51;4.65;;;4.10;;
11598;SDS011;5855;48.840;9.188;2023-04-06T13:34:18;4.90;;;4.45;;
11598;SDS011;5855;48.840;9.188;2023-04-06T13:36:46;4.70;;;4.20;;
11598;SDS011;5855;48.840;9.188;2023-04-06T13:39:13;5.88;;;4.53;;
11598;SDS011;5855;48.840;9.188;2023-04-06T13:41:40;5.07;;;4.68;;
11598;SDS011;5855;48.840;9.188;2023-04-06T13:44:07;4.72;;;4.20;;
11598;SDS011;5855;48.840;9.188;2023-04-06T13:46:33;5.25;;;4.30;;
11598;SDS011;5855;48.840;9.188;2023-04-06T13:49:01;4.18;;;3.78;;
11598;SDS011;5855;48.840;9.188;2023-04-06T13:51:27;5.32;;;4.10;;
11598;SDS011;5855;48.840;9.188;2023-04-06T13:53:57;4.25;;;3.90;;
11598;SDS011;5855;48.840;9.188;2023-04-06T13:56:23;4.57;;;4.18;;
11598;SDS011;5855;48.840;9.188;2023-04-06T13:58:53;5.00;;;4.25;;
11598;SDS011;5855;48.840;9.188;2023-04-06T14:01:20;4.68;;;4.28;;
11598;SDS011;5855;48.840;9.188;2023-04-06T14:03:47;5.15;;;4.65;;
11598;SDS011;5855;48.840;9.188;2023-04-06T14:06:14;4.88;;;4.38;;
11598;SDS011;5855;48.840;9.188;2023-04-06T14:08:41;5.38;;;4.57;;
11598;SDS011;5855;48.840;9.188;2023-04-06T14:11:14;4.57;;;4.18;;
11598;SDS011;5855;48.840;9.188;2023-04-06T14:13:41;4.80;;;4.40;;
11598;SDS011;5855;48.840;9.188;2023-04-06T14:16:08;5.05;;;4.63;;
11598;SDS011;5855;48.840;9.188;2023-04-06T14:18:36;5.18;;;4.43;;
11598;SDS011;5855;48.840;9.188;2023-04-06T14:21:03;5.25;;;4.72;;
11598;SDS011;5855;48.840;9.188;2023-04-06T14:23:30;5.93;;;4.75;;
11598;SDS011;5855;48.840;9.188;2023-04-06T14:26:01;6.03;;;4.63;;
11598;SDS011;5855;48.840;9.188;2023-04-06T14:28:30;5.00;;;4.50;;
11598;SDS011;5855;48.840;9.188;2023-04-06T14:30:58;5.20;;;4.60;;
11598;SDS011;5855;48.840;9.188;2023-04-06T14:33:25;5.35;;;4.50;;
11598;SDS011;5855;48.840;9.188;2023-04-06T14:35:52;5.03;;;4.60;;
11598;SDS011;5855;48.840;9.188;2023-04-06T14:38:19;5.55;;;4.93;;
11598;SDS011;5855;48.840;9.188;2023-04-06T14:40:46;6.50;;;5.05;;
11598;SDS011;5855;48.840;9.188;2023-04-06T14:43:12;9.77;;;5.95;;
11598;SDS011;5855;48.840;9.188;2023-04-06T14:45:41;5.82;;;5.25;;
11598;SDS011;5855;48.840;9.188;2023-04-06T14:48:08;5.95;;;4.43;;
11598;SDS011;5855;48.840;9.188;2023-04-06T14:50:37;5.30;;;4.80;;
11598;SDS011;5855;48.840;9.188;2023-04-06T14:53:04;5.78;;;4.72;;
11598;SDS011;5855;48.840;9.188;2023-04-06T14:55:31;5.82;;;4.75;;
11598;SDS011;5855;48.840;9.188;2023-04-06T14:57:57;5.47;;;4.70;;